sensor_id;sensor_type;location;lat;lon;timestamp;pressure;altitude;pressure_sealevel;temperature;humidity
60345;BME280;46188;52.324;8.032;2022-11-20T00:01:09;100211.16;;;-3.85;100.00
60345;BME280;46188;52.324;8.032;2022-11-20T00:03:34;100210.03;;;-3.89;100.00
60345;BME280;46188;52.324;8.032;2022-11-20T00:06:04;100213.22;;;-3.93;100.00
60345;BME280;46188;52.324;8.032;2022-11-20T00:08:30;100211.16;;;-3.99;100.00
60345;BME280;46188;52.324;8.032;2022-11-20T00:10:55;100209.06;;;-4.04;100.00
60345;BME280;46188;52.324;8.032;2022-11-20T00:13:21;100206.16;;;-4.09;100.00
60345;BME280;46188;52.324;8.032;2022-11-20T00:15:46;100214.59;;;-4.12;100.00
60345;BME280;46188;52.324;8.032;2022-11-20T00:18:12;100204.88;;;-4.16;100.00
60345;BME280;46188;52.324;8.032;2022-11-20T00:20:37;100207.84;;;-4.23;100.00
60345;BME280;46188;52.324;8.032;2022-11-20T00:23:03;100197.34;;;-4.26;100.00
60345;BME280;46188;52.324;8.032;2022-11-20T00:25:28;100199.81;;;-4.28;100.00
60345;BME280;46188;52.324;8.032;2022-11-20T00:27:54;100199.13;;;-4.38;100.00
60345;BME280;46188;52.324;8.032;2022-11-20T00:30:19;100193.06;;;-4.39;100.00
60345;BME280;46188;52.324;8.032;2022-11-20T00:32:44;100193.06;;;-4.39;100.00
60345;BME280;46188;52.324;8.032;2022-11-20T00:35:10;100194.56;;;-4.42;100.00
60345;BME280;46188;52.324;8.032;2022-11-20T00:37:35;100191.78;;;-4.46;100.00
60345;BME280;46188;52.324;8.032;2022-11-20T00:40:01;100188.22;;;-4.48;100.00
60345;BME280;46188;52.324;8.032;2022-11-20T00:42:26;100196.06;;;-4.46;100.00
60345;BME280;46188;52.324;8.032;2022-11-20T00:44:52;100190.50;;;-4.39;100.00
60345;BME280;46188;52.324;8.032;2022-11-20T00:47:17;100199.13;;;-4.38;100.00
60345;BME280;46188;52.324;8.032;2022-11-20T00:49:43;100195.44;;;-4.42;100.00
60345;BME280;46188;52.324;8.032;2022-11-20T00:52:08;100203.16;;;-4.42;100.00
60345;BME280;46188;52.324;8.032;2022-11-20T00:54:34;100203.75;;;-4.46;100.00
60345;BME280;46188;52.324;8.032;2022-11-20T00:56:59;100205.47;;;-4.47;100.00
60345;BME280;46188;52.324;8.032;2022-11-20T00:59:24;100197.31;;;-4.53;100.00
60345;BME280;46188;52.324;8.032;2022-11-20T01:01:50;100194.66;;;-4.54;100.00
60345;BME280;46188;52.324;8.032;2022-11-20T01:04:15;100189.41;;;-4.56;100.00
60345;BME280;46188;52.324;8.032;2022-11-20T01:06:41;100194.16;;;-4.49;100.00
60345;BME280;46188;52.324;8.032;2022-11-20T01:09:12;100185.44;;;-4.51;100.00
60345;BME280;46188;52.324;8.032;2022-11-20T01:11:40;100189.09;;;-4.47;100.00
60345;BME280;46188;52.324;8.032;2022-11-20T01:14:10;100191.56;;;-4.49;100.00
60345;BME280;46188;52.324;8.032;2022-11-20T01:16:38;100192.38;;;-4.50;100.00
60345;BME280;46188;52.324;8.032;2022-11-20T01:19:06;100187.91;;;-4.52;100.00
60345;BME280;46188;52.324;8.032;2022-11-20T01:21:37;100189.41;;;-4.56;100.00
60345;BME280;46188;52.324;8.032;2022-11-20T01:24:04;100188.72;;;-4.53;100.00
60345;BME280;46188;52.324;8.032;2022-11-20T01:26:32;100184.34;;;-4.54;100.00
60345;BME280;46188;52.324;8.032;2022-11-20T01:28:59;100184.66;;;-4.63;100.00
60345;BME280;46188;52.324;8.032;2022-11-20T01:31:34;100178.31;;;-4.68;100.00
60345;BME280;46188;52.324;8.032;2022-11-20T01:34:03;100177.28;;;-4.70;100.00
60345;BME280;46188;52.324;8.032;2022-11-20T01:36:30;100174.91;;;-4.80;100.00
60345;BME280;46188;52.324;8.032;2022-11-20T01:38:59;100163.53;;;-4.84;100.00
60345;BME280;46188;52.324;8.032;2022-11-20T01:41:26;100171.34;;;-4.83;100.00
60345;BME280;46188;52.324;8.032;2022-11-20T01:44:12;100174.47;;;-4.87;100.00
60345;BME280;46188;52.324;8.032;2022-11-20T01:46:42;100169.34;;;-4.87;100.00
60345;BME280;46188;52.324;8.032;2022-11-20T01:49:21;100162.44;;;-4.88;100.00
60345;BME280;46188;52.324;8.032;2022-11-20T01:52:04;100171.34;;;-4.83;100.00
60345;BME280;46188;52.324;8.032;2022-11-20T01:54:49;100168.16;;;-4.78;100.00
60345;BME280;46188;52.324;8.032;2022-11-20T01:57:16;100157.88;;;-4.78;100.00
60345;BME280;46188;52.324;8.032;2022-11-20T01:59:51;100163.84;;;-4.79;100.00
60345;BME280;46188;52.324;8.032;2022-11-20T02:02:20;100165.91;;;-4.74;100.00
60345;BME280;46188;52.324;8.032;2022-11-20T02:04:47;100159.00;;;-4.75;100.00
60345;BME280;46188;52.324;8.032;2022-11-20T02:07:13;100150.38;;;-4.75;100.00
60345;BME280;46188;52.324;8.032;2022-11-20T02:09:39;100152.19;;;-4.74;100.00
60345;BME280;46188;52.324;8.032;2022-11-20T02:12:04;100150.38;;;-4.75;100.00
60345;BME280;46188;52.324;8.032;2022-11-20T02:14:30;100155.53;;;-4.75;100.00
60345;BME280;46188;52.324;8.032;2022-11-20T02:16:57;100144.34;;;-4.76;100.00
60345;BME280;46188;52.324;8.032;2022-11-20T02:19:26;100139.84;;;-4.92;100.00
60345;BME280;46188;52.324;8.032;2022-11-20T02:21:58;100132.13;;;-4.92;100.00
60345;BME280;46188;52.324;8.032;2022-11-20T02:24:25;100127.59;;;-4.96;100.00
60345;BME280;46188;52.324;8.032;2022-11-20T02:26:57;100136.28;;;-4.94;100.00
60345;BME280;46188;52.324;8.032;2022-11-20T02:29:36;100138.44;;;-5.00;100.00
60345;BME280;46188;52.324;8.032;2022-11-20T02:32:03;100137.66;;;-4.99;100.00
60345;BME280;46188;52.324;8.032;2022-11-20T02:34:29;100136.91;;;-4.98;100.00
60345;BME280;46188;52.324;8.032;2022-11-20T02:36:55;100138.16;;;-5.05;100.00
60345;BME280;46188;52.324;8.032;2022-11-20T02:39:23;100138.84;;;-5.07;100.00
60345;BME280;46188;52.324;8.032;2022-11-20T02:41:52;100134.31;;;-4.98;100.00
60345;BME280;46188;52.324;8.032;2022-11-20T02:44:18;100129.56;;;-4.92;100.00
60345;BME280;46188;52.324;8.032;2022-11-20T02:46:43;100127.59;;;-4.96;100.00
60345;BME280;46188;52.324;8.032;2022-11-20T02:49:09;100124.22;;;-4.95;100.00
60345;BME280;46188;52.324;8.032;2022-11-20T02:51:34;100117.81;;;-4.88;100.00
60345;BME280;46188;52.324;8.032;2022-11-20T02:54:00;100126.22;;;-4.91;100.00
60345;BME280;46188;52.324;8.032;2022-11-20T02:56:25;100124.63;;;-4.89;100.00
60345;BME280;46188;52.324;8.032;2022-11-20T02:58:51;100125.25;;;-4.93;100.00
60345;BME280;46188;52.324;8.032;2022-11-20T03:01:16;100136.72;;;-4.88;100.00
60345;BME280;46188;52.324;8.032;2022-11-20T03:03:41;100141.16;;;-4.85;100.00
60345;BME280;46188;52.324;8.032;2022-11-20T03:06:07;100133.34;;;-4.87;100.00
60345;BME280;46188;52.324;8.032;2022-11-20T03:08:33;100126.13;;;-4.92;100.00
60345;BME280;46188;52.324;8.032;2022-11-20T03:11:03;100126.22;;;-4.91;100.00
60345;BME280;46188;52.324;8.032;2022-11-20T03:13:29;100128.59;;;-4.94;100.00
60345;BME280;46188;52.324;8.032;2022-11-20T03:15:55;100128.69;;;-4.92;100.00
60345;BME280;46188;52.324;8.032;2022-11-20T03:18:20;100124.44;;;-4.92;100.00
60345;BME280;46188;52.324;8.032;2022-11-20T03:20:45;100124.81;;;-4.99;100.00
60345;BME280;46188;52.324;8.032;2022-11-20T03:23:11;100125.38;;;-5.03;100.00
60345;BME280;46188;52.324;8.032;2022-11-20T03:25:36;100122.53;;;-5.08;100.00
60345;BME280;46188;52.324;8.032;2022-11-20T03:28:02;100123.09;;;-5.12;100.00
60345;BME280;46188;52.324;8.032;2022-11-20T03:30:27;100112.34;;;-5.06;100.00
60345;BME280;46188;52.324;8.032;2022-11-20T03:32:53;100114.31;;;-5.02;100.00
60345;BME280;46188;52.324;8.032;2022-11-20T03:35:19;100100.81;;;-4.99;100.00
60345;BME280;46188;52.324;8.032;2022-11-20T03:37:44;100105.25;;;-4.97;100.00
60345;BME280;46188;52.324;8.032;2022-11-20T03:40:11;100101.78;;;-4.97;100.00
60345;BME280;46188;52.324;8.032;2022-11-20T03:42:36;100100.09;;;-4.97;100.00
60345;BME280;46188;52.324;8.032;2022-11-20T03:45:12;100087.03;;;-5.00;100.00
60345;BME280;46188;52.324;8.032;2022-11-20T03:47:37;100089.50;;;-5.02;100.00
60345;BME280;46188;52.324;8.032;2022-11-20T03:50:03;100096.13;;;-5.05;100.00
60345;BME280;46188;52.324;8.032;2022-11-20T03:52:29;100093.94;;;-5.12;100.00
60345;BME280;46188;52.324;8.032;2022-11-20T03:54:54;100090.94;;;-5.19;100.00
60345;BME280;46188;52.324;8.032;2022-11-20T03:57:20;100092.75;;;-5.17;100.00
60345;BME280;46188;52.324;8.032;2022-11-20T03:59:45;100084.81;;;-5.21;100.00
60345;BME280;46188;52.324;8.032;2022-11-20T04:02:11;100088.28;;;-5.20;100.00
60345;BME280;46188;52.324;8.032;2022-11-20T04:04:36;100085.03;;;-5.17;100.00
60345;BME280;46188;52.324;8.032;2022-11-20T04:07:02;100084.81;;;-5.21;100.00
60345;BME280;46188;52.324;8.032;2022-11-20T04:09:27;100081.91;;;-5.39;100.00
60345;BME280;46188;52.324;8.032;2022-11-20T04:11:53;100079.13;;;-5.42;100.00
60345;BME280;46188;52.324;8.032;2022-11-20T04:14:19;100076.56;;;-5.42;100.00
60345;BME280;46188;52.324;8.032;2022-11-20T04:16:45;100077.97;;;-5.33;100.00
60345;BME280;46188;52.324;8.032;2022-11-20T04:19:12;100079.28;;;-5.27;100.00
60345;BME280;46188;52.324;8.032;2022-11-20T04:21:39;100085.91;;;-5.17;100.00
60345;BME280;46188;52.324;8.032;2022-11-20T04:24:05;100078.53;;;-5.12;100.00
60345;BME280;46188;52.324;8.032;2022-11-20T04:26:31;100073.97;;;-5.03;100.00
60345;BME280;46188;52.324;8.032;2022-11-20T04:28:57;100070.84;;;-4.99;100.00
60345;BME280;46188;52.324;8.032;2022-11-20T04:31:26;100073.81;;;-5.06;100.00
60345;BME280;46188;52.324;8.032;2022-11-20T04:33:51;100070.03;;;-5.11;100.00
60345;BME280;46188;52.324;8.032;2022-11-20T04:36:23;100073.69;;;-5.08;100.00
60345;BME280;46188;52.324;8.032;2022-11-20T04:38:56;100070.41;;;-5.05;100.00
60345;BME280;46188;52.324;8.032;2022-11-20T04:41:27;100067.53;;;-5.10;100.00
60345;BME280;46188;52.324;8.032;2022-11-20T04:43:56;100073.50;;;-5.11;100.00
60345;BME280;46188;52.324;8.032;2022-11-20T04:46:25;100077.16;;;-5.07;100.00
60345;BME280;46188;52.324;8.032;2022-11-20T04:48:51;100079.31;;;-5.00;100.00
60345;BME280;46188;52.324;8.032;2022-11-20T04:51:16;100073.44;;;-4.86;100.00
60345;BME280;46188;52.324;8.032;2022-11-20T04:53:42;100072.53;;;-4.86;100.00
60345;BME280;46188;52.324;8.032;2022-11-20T04:56:09;100068.28;;;-4.86;100.00
60345;BME280;46188;52.324;8.032;2022-11-20T04:58:35;100073.75;;;-4.81;100.00
60345;BME280;46188;52.324;8.032;2022-11-20T05:03:30;100082.44;;;-4.79;100.00
60345;BME280;46188;52.324;8.032;2022-11-20T05:05:56;100085.09;;;-4.91;100.00
60345;BME280;46188;52.324;8.032;2022-11-20T05:08:21;100079.53;;;-4.97;100.00
60345;BME280;46188;52.324;8.032;2022-11-20T05:10:47;100077.06;;;-4.95;100.00
60345;BME280;46188;52.324;8.032;2022-11-20T05:13:12;100080.91;;;-5.02;100.00
60345;BME280;46188;52.324;8.032;2022-11-20T05:15:38;100074.81;;;-4.91;100.00
60345;BME280;46188;52.324;8.032;2022-11-20T05:18:03;100079.06;;;-4.91;100.00
60345;BME280;46188;52.324;8.032;2022-11-20T05:20:29;100074.19;;;-5.00;100.00
60345;BME280;46188;52.324;8.032;2022-11-20T05:22:57;100070.25;;;-4.95;100.00
60345;BME280;46188;52.324;8.032;2022-11-20T05:25:22;100061.19;;;-4.90;100.00
60345;BME280;46188;52.324;8.032;2022-11-20T05:27:48;100069.75;;;-5.03;100.00
60345;BME280;46188;52.324;8.032;2022-11-20T05:30:13;100057.97;;;-4.99;100.00
60345;BME280;46188;52.324;8.032;2022-11-20T05:32:39;100056.19;;;-5.00;100.00
60345;BME280;46188;52.324;8.032;2022-11-20T05:35:05;100049.28;;;-5.14;100.00
60345;BME280;46188;52.324;8.032;2022-11-20T05:37:30;100057.09;;;-5.13;100.00
60345;BME280;46188;52.324;8.032;2022-11-20T05:39:56;100047.91;;;-5.09;100.00
60345;BME280;46188;52.324;8.032;2022-11-20T05:42:21;100047.91;;;-5.09;100.00
60345;BME280;46188;52.324;8.032;2022-11-20T05:44:59;100050.25;;;-5.12;100.00
60345;BME280;46188;52.324;8.032;2022-11-20T05:47:26;100039.75;;;-5.29;100.00
60345;BME280;46188;52.324;8.032;2022-11-20T05:49:52;100036.56;;;-5.63;100.00
60345;BME280;46188;52.324;8.032;2022-11-20T05:52:18;100040.75;;;-5.52;100.00
60345;BME280;46188;52.324;8.032;2022-11-20T05:54:43;100042.06;;;-5.45;100.00
60345;BME280;46188;52.324;8.032;2022-11-20T05:57:09;100039.34;;;-5.60;100.00
60345;BME280;46188;52.324;8.032;2022-11-20T05:59:34;100041.63;;;-5.51;100.00
60345;BME280;46188;52.324;8.032;2022-11-20T06:01:59;100039.72;;;-5.42;100.00
60345;BME280;46188;52.324;8.032;2022-11-20T06:04:25;100044.97;;;-5.27;100.00
60345;BME280;46188;52.324;8.032;2022-11-20T06:06:50;100043.63;;;-5.09;100.00
60345;BME280;46188;52.324;8.032;2022-11-20T06:09:16;100043.44;;;-4.98;100.00
60345;BME280;46188;52.324;8.032;2022-11-20T06:11:41;100046.34;;;-4.80;100.00
60345;BME280;46188;52.324;8.032;2022-11-20T06:14:07;100046.94;;;-4.71;100.00
60345;BME280;46188;52.324;8.032;2022-11-20T06:16:32;100049.72;;;-4.68;100.00
60345;BME280;46188;52.324;8.032;2022-11-20T06:18:58;100052.88;;;-4.59;100.00
60345;BME280;46188;52.324;8.032;2022-11-20T06:21:23;100047.81;;;-4.57;100.00
60345;BME280;46188;52.324;8.032;2022-11-20T06:23:50;100039.78;;;-4.49;100.00
60345;BME280;46188;52.324;8.032;2022-11-20T06:26:22;100049.50;;;-4.58;100.00
60345;BME280;46188;52.324;8.032;2022-11-20T06:28:48;100035.38;;;-4.65;100.00
60345;BME280;46188;52.324;8.032;2022-11-20T06:31:15;100043.19;;;-4.50;100.00
60345;BME280;46188;52.324;8.032;2022-11-20T06:33:41;100053.25;;;-4.39;100.00
60345;BME280;46188;52.324;8.032;2022-11-20T06:36:09;100053.84;;;-4.30;100.00
60345;BME280;46188;52.324;8.032;2022-11-20T06:38:35;100061.56;;;-4.30;100.00
60345;BME280;46188;52.324;8.032;2022-11-20T06:41:00;100061.06;;;-4.24;100.00
60345;BME280;46188;52.324;8.032;2022-11-20T06:43:25;100067.69;;;-4.15;100.00
60345;BME280;46188;52.324;8.032;2022-11-20T06:45:56;100064.81;;;-4.19;100.00
60345;BME280;46188;52.324;8.032;2022-11-20T06:48:22;100053.94;;;-4.15;100.00
60345;BME280;46188;52.324;8.032;2022-11-20T06:50:48;100047.75;;;-4.04;100.00
60345;BME280;46188;52.324;8.032;2022-11-20T06:53:14;100045.16;;;-4.04;100.00
60345;BME280;46188;52.324;8.032;2022-11-20T06:55:44;100045.00;;;-4.07;100.00
60345;BME280;46188;52.324;8.032;2022-11-20T06:58:10;100037.53;;;-4.02;100.00
60345;BME280;46188;52.324;8.032;2022-11-20T07:00:35;100037.03;;;-3.97;100.00
60345;BME280;46188;52.324;8.032;2022-11-20T07:03:04;100047.63;;;-3.92;100.00
60345;BME280;46188;52.324;8.032;2022-11-20T07:05:30;100045.47;;;-3.99;100.00
60345;BME280;46188;52.324;8.032;2022-11-20T07:07:56;100037.75;;;-4.13;100.00
60345;BME280;46188;52.324;8.032;2022-11-20T07:10:22;100038.97;;;-4.21;100.00
60345;BME280;46188;52.324;8.032;2022-11-20T07:12:52;100050.75;;;-4.11;100.00
60345;BME280;46188;52.324;8.032;2022-11-20T07:15:19;100055.44;;;-3.91;100.00
60345;BME280;46188;52.324;8.032;2022-11-20T07:17:44;100048.03;;;-3.99;100.00
60345;BME280;46188;52.324;8.032;2022-11-20T07:20:11;100046.13;;;-3.88;100.00
60345;BME280;46188;52.324;8.032;2022-11-20T07:22:37;100046.59;;;-3.81;100.00
60345;BME280;46188;52.324;8.032;2022-11-20T07:25:03;100046.00;;;-3.77;100.00
60345;BME280;46188;52.324;8.032;2022-11-20T07:27:28;100039.78;;;-3.80;100.00
60345;BME280;46188;52.324;8.032;2022-11-20T07:29:54;100038.16;;;-3.78;100.00
60345;BME280;46188;52.324;8.032;2022-11-20T07:32:19;100031.16;;;-3.66;100.00
60345;BME280;46188;52.324;8.032;2022-11-20T07:34:45;100032.88;;;-3.66;100.00
60345;BME280;46188;52.324;8.032;2022-11-20T07:37:11;100026.31;;;-3.61;100.00
60345;BME280;46188;52.324;8.032;2022-11-20T07:39:37;100025.91;;;-3.54;100.00
60345;BME280;46188;52.324;8.032;2022-11-20T07:42:02;100028.53;;;-3.53;100.00
60345;BME280;46188;52.324;8.032;2022-11-20T07:44:27;100034.16;;;-3.45;100.00
60345;BME280;46188;52.324;8.032;2022-11-20T07:46:53;100032.13;;;-3.36;100.00
60345;BME280;46188;52.324;8.032;2022-11-20T07:49:18;100031.69;;;-3.28;100.00
60345;BME280;46188;52.324;8.032;2022-11-20T07:51:44;100033.31;;;-3.16;100.00
60345;BME280;46188;52.324;8.032;2022-11-20T07:54:09;100039.16;;;-3.03;100.00
60345;BME280;46188;52.324;8.032;2022-11-20T07:56:35;100035.25;;;-2.97;100.00
60345;BME280;46188;52.324;8.032;2022-11-20T07:59:00;100034.81;;;-2.89;100.00
60345;BME280;46188;52.324;8.032;2022-11-20T08:01:26;100038.47;;;-2.86;100.00
60345;BME280;46188;52.324;8.032;2022-11-20T08:03:51;100033.72;;;-2.78;100.00
60345;BME280;46188;52.324;8.032;2022-11-20T08:06:16;100022.16;;;-2.85;100.00
60345;BME280;46188;52.324;8.032;2022-11-20T08:08:43;100022.91;;;-3.02;100.00
60345;BME280;46188;52.324;8.032;2022-11-20T08:11:09;100016.31;;;-3.12;100.00
60345;BME280;46188;52.324;8.032;2022-11-20T08:13:53;100012.03;;;-2.97;100.00
60345;BME280;46188;52.324;8.032;2022-11-20T08:16:37;100032.31;;;-2.73;100.00
60345;BME280;46188;52.324;8.032;2022-11-20T08:19:03;100028.28;;;-2.53;100.00
60345;BME280;46188;52.324;8.032;2022-11-20T08:21:30;100026.47;;;-2.39;100.00
60345;BME280;46188;52.324;8.032;2022-11-20T08:23:57;100029.72;;;-2.27;100.00
60345;BME280;46188;52.324;8.032;2022-11-20T08:26:22;100026.75;;;-2.18;100.00
60345;BME280;46188;52.324;8.032;2022-11-20T08:28:48;100022.72;;;-2.13;100.00
60345;BME280;46188;52.324;8.032;2022-11-20T08:31:14;100019.03;;;-2.01;100.00
60345;BME280;46188;52.324;8.032;2022-11-20T08:33:39;100022.91;;;-1.93;100.00
60345;BME280;46188;52.324;8.032;2022-11-20T08:36:05;100026.56;;;-1.90;100.00
60345;BME280;46188;52.324;8.032;2022-11-20T08:38:32;100036.81;;;-1.91;100.00
60345;BME280;46188;52.324;8.032;2022-11-20T08:41:02;100038.00;;;-1.84;100.00
60345;BME280;46188;52.324;8.032;2022-11-20T08:43:47;100046.72;;;-1.82;100.00
60345;BME280;46188;52.324;8.032;2022-11-20T08:46:12;100043.28;;;-1.83;100.00
60345;BME280;46188;52.324;8.032;2022-11-20T08:48:38;100047.88;;;-1.77;100.00
60345;BME280;46188;52.324;8.032;2022-11-20T08:51:03;100055.53;;;-1.79;100.00
60345;BME280;46188;52.324;8.032;2022-11-20T08:53:29;100052.22;;;-1.76;100.00
60345;BME280;46188;52.324;8.032;2022-11-20T08:55:56;100040.78;;;-1.65;100.00
60345;BME280;46188;52.324;8.032;2022-11-20T08:58:22;100045.06;;;-1.65;100.00
60345;BME280;46188;52.324;8.032;2022-11-20T09:00:47;100043.66;;;-1.92;100.00
60345;BME280;46188;52.324;8.032;2022-11-20T09:03:13;100034.63;;;-1.83;100.00
60345;BME280;46188;52.324;8.032;2022-11-20T09:05:38;100041.03;;;-1.77;100.00
60345;BME280;46188;52.324;8.032;2022-11-20T09:08:04;100044.31;;;-1.79;100.00
60345;BME280;46188;52.324;8.032;2022-11-20T09:10:29;100043.19;;;-1.68;100.00
60345;BME280;46188;52.324;8.032;2022-11-20T09:12:55;100039.91;;;-1.65;100.00
60345;BME280;46188;52.324;8.032;2022-11-20T09:15:21;100035.03;;;-1.59;100.00
60345;BME280;46188;52.324;8.032;2022-11-20T09:17:56;100036.31;;;-1.51;100.00
60345;BME280;46188;52.324;8.032;2022-11-20T09:20:23;100036.56;;;-1.63;100.00
60345;BME280;46188;52.324;8.032;2022-11-20T09:22:48;100029.56;;;-1.65;100.00
60345;BME280;46188;52.324;8.032;2022-11-20T09:25:14;100030.28;;;-1.52;100.00
60345;BME280;46188;52.324;8.032;2022-11-20T09:27:39;100022.75;;;-1.31;100.00
60345;BME280;46188;52.324;8.032;2022-11-20T09:30:09;100025.09;;;-1.35;100.00
60345;BME280;46188;52.324;8.032;2022-11-20T09:32:34;100028.19;;;-1.24;100.00
60345;BME280;46188;52.324;8.032;2022-11-20T09:35:01;100024.56;;;-1.28;100.00
60345;BME280;46188;52.324;8.032;2022-11-20T09:37:26;100021.56;;;-1.19;100.00
60345;BME280;46188;52.324;8.032;2022-11-20T09:39:51;100024.97;;;-1.20;100.00
60345;BME280;46188;52.324;8.032;2022-11-20T09:45:24;100019.88;;;-1.19;100.00
60345;BME280;46188;52.324;8.032;2022-11-20T09:53:36;100024.59;;;-1.44;100.00
60345;BME280;46188;52.324;8.032;2022-11-20T09:56:09;100011.66;;;-1.28;100.00
60345;BME280;46188;52.324;8.032;2022-11-20T09:58:45;100014.28;;;-1.61;100.00
60345;BME280;46188;52.324;8.032;2022-11-20T10:01:15;100010.56;;;-1.50;100.00
60345;BME280;46188;52.324;8.032;2022-11-20T10:06:32;100005.81;;;-1.07;100.00
60345;BME280;46188;52.324;8.032;2022-11-20T10:09:28;100009.72;;;-0.98;100.00
60345;BME280;46188;52.324;8.032;2022-11-20T10:12:09;100020.06;;;-0.98;100.00
60345;BME280;46188;52.324;8.032;2022-11-20T10:17:29;100011.91;;;-0.53;100.00
60345;BME280;46188;52.324;8.032;2022-11-20T10:20:08;100014.34;;;-0.56;100.00
60345;BME280;46188;52.324;8.032;2022-11-20T10:25:38;100007.38;;;-0.39;100.00
60345;BME280;46188;52.324;8.032;2022-11-20T10:31:11;99997.50;;;-0.28;100.00
60345;BME280;46188;52.324;8.032;2022-11-20T10:33:42;99983.66;;;-0.29;100.00
60345;BME280;46188;52.324;8.032;2022-11-20T10:38:50;99980.09;;;-0.13;100.00
60345;BME280;46188;52.324;8.032;2022-11-20T10:41:23;99975.81;;;0.07;100.00
60345;BME280;46188;52.324;8.032;2022-11-20T10:44:17;99979.44;;;0.11;100.00
60345;BME280;46188;52.324;8.032;2022-11-20T10:47:19;99971.78;;;0.33;100.00
60345;BME280;46188;52.324;8.032;2022-11-20T10:49:52;99973.25;;;0.48;100.00
60345;BME280;46188;52.324;8.032;2022-11-20T11:00:31;99960.66;;;0.77;100.00
60345;BME280;46188;52.324;8.032;2022-11-20T11:02:56;99959.56;;;1.14;100.00
60345;BME280;46188;52.324;8.032;2022-11-20T11:05:50;99958.44;;;1.51;99.91
60345;BME280;46188;52.324;8.032;2022-11-20T11:08:19;99952.72;;;1.59;98.53
60345;BME280;46188;52.324;8.032;2022-11-20T11:10:53;99950.13;;;1.59;98.08
60345;BME280;46188;52.324;8.032;2022-11-20T11:13:28;99950.69;;;1.52;98.95
60345;BME280;46188;52.324;8.032;2022-11-20T11:15:54;99953.44;;;1.33;98.38
60345;BME280;46188;52.324;8.032;2022-11-20T11:18:28;99946.88;;;1.42;98.77
60345;BME280;46188;52.324;8.032;2022-11-20T11:20:56;99938.06;;;1.61;98.02
60345;BME280;46188;52.324;8.032;2022-11-20T11:23:34;99939.19;;;1.68;97.69
60345;BME280;46188;52.324;8.032;2022-11-20T11:26:03;99927.56;;;1.81;97.46
60345;BME280;46188;52.324;8.032;2022-11-20T11:28:29;99921.88;;;1.69;97.46
60345;BME280;46188;52.324;8.032;2022-11-20T11:30:55;99921.56;;;1.59;98.04
60345;BME280;46188;52.324;8.032;2022-11-20T11:33:29;99924.69;;;1.28;96.69
60345;BME280;46188;52.324;8.032;2022-11-20T11:35:58;99917.97;;;1.12;97.10
60345;BME280;46188;52.324;8.032;2022-11-20T11:38:29;99919.59;;;1.31;97.67
60345;BME280;46188;52.324;8.032;2022-11-20T11:40:56;99911.34;;;1.41;97.44
60345;BME280;46188;52.324;8.032;2022-11-20T11:43:28;99906.53;;;1.52;97.20
60345;BME280;46188;52.324;8.032;2022-11-20T11:46:32;99919.75;;;1.81;95.54
60345;BME280;46188;52.324;8.032;2022-11-20T11:52:46;99907.00;;;2.11;94.58
60345;BME280;46188;52.324;8.032;2022-11-20T11:57:23;99885.13;;;1.82;91.56
60345;BME280;46188;52.324;8.032;2022-11-20T12:04:57;99890.47;;;1.17;95.57
60345;BME280;46188;52.324;8.032;2022-11-20T12:07:30;99876.34;;;2.02;92.78
60345;BME280;46188;52.324;8.032;2022-11-20T12:10:01;99881.31;;;2.72;87.91
60345;BME280;46188;52.324;8.032;2022-11-20T12:12:37;99873.94;;;2.58;88.26
60345;BME280;46188;52.324;8.032;2022-11-20T12:15:11;99873.81;;;2.04;90.81
60345;BME280;46188;52.324;8.032;2022-11-20T12:17:37;99881.88;;;1.88;92.94
60345;BME280;46188;52.324;8.032;2022-11-20T12:20:11;99885.13;;;1.82;93.21
60345;BME280;46188;52.324;8.032;2022-11-20T12:25:28;99889.38;;;1.56;95.18
60345;BME280;46188;52.324;8.032;2022-11-20T12:30:24;99866.66;;;1.98;95.40
60345;BME280;46188;52.324;8.032;2022-11-20T12:39:05;99867.97;;;2.35;93.54
60345;BME280;46188;52.324;8.032;2022-11-20T12:59:41;99844.81;;;2.98;93.21
60345;BME280;46188;52.324;8.032;2022-11-20T13:05:06;99848.84;;;3.15;92.18
60345;BME280;46188;52.324;8.032;2022-11-20T13:07:38;99832.03;;;3.34;90.51
60345;BME280;46188;52.324;8.032;2022-11-20T13:10:05;99838.41;;;3.44;90.28
60345;BME280;46188;52.324;8.032;2022-11-20T13:12:46;99841.25;;;2.94;89.97
60345;BME280;46188;52.324;8.032;2022-11-20T13:15:57;99835.91;;;2.62;92.33
60345;BME280;46188;52.324;8.032;2022-11-20T13:18:04;99829.38;;;2.75;92.18
60345;BME280;46188;52.324;8.032;2022-11-20T13:20:32;99827.69;;;2.77;91.76
60345;BME280;46188;52.324;8.032;2022-11-20T13:22:58;99824.50;;;2.86;91.73
60345;BME280;46188;52.324;8.032;2022-11-20T13:25:32;99828.31;;;2.68;92.21
60345;BME280;46188;52.324;8.032;2022-11-20T13:27:58;99823.28;;;2.47;92.46
60345;BME280;46188;52.324;8.032;2022-11-20T13:30:27;99808.63;;;2.24;93.41
60345;BME280;46188;52.324;8.032;2022-11-20T13:33:06;99809.38;;;2.21;94.76
60345;BME280;46188;52.324;8.032;2022-11-20T13:35:37;99814.38;;;2.15;95.07
60345;BME280;46188;52.324;8.032;2022-11-20T13:38:11;99799.13;;;2.00;95.26
60345;BME280;46188;52.324;8.032;2022-11-20T13:41:00;99796.81;;;1.83;96.47
60345;BME280;46188;52.324;8.032;2022-11-20T13:43:46;99786.25;;;1.77;97.09
60345;BME280;46188;52.324;8.032;2022-11-20T13:46:12;99785.28;;;1.75;97.32
60345;BME280;46188;52.324;8.032;2022-11-20T13:48:40;99782.78;;;1.78;96.97
60345;BME280;46188;52.324;8.032;2022-11-20T13:51:27;99779.47;;;1.82;97.51
60345;BME280;46188;52.324;8.032;2022-11-20T14:02:15;99758.47;;;1.76;98.70
60345;BME280;46188;52.324;8.032;2022-11-20T14:04:45;99754.22;;;1.78;98.66
60345;BME280;46188;52.324;8.032;2022-11-20T14:07:12;99747.19;;;1.76;99.23
60345;BME280;46188;52.324;8.032;2022-11-20T14:09:38;99742.81;;;1.75;99.64
60345;BME280;46188;52.324;8.032;2022-11-20T14:12:15;99736.00;;;1.53;100.00
60345;BME280;46188;52.324;8.032;2022-11-20T14:14:52;99732.44;;;1.49;100.00
60345;BME280;46188;52.324;8.032;2022-11-20T14:19:44;99716.38;;;1.37;100.00